Terminal Aerodrome Forecast
Issued by NWS

Home | Current Version | Previous Version | Text Only | Print | Product List | Glossary On
Versions: 1 2 3 4 5 6 7 8 9 10 11 12 13 14 15 16 17 18 19 20 21 22 23 24 25 26 27 28 29 30 31 32 33 34
000
FTUS43 KDLH 030600 CCA
TAFBRD
TAF COR
KBRD 030600Z 0306/0406 20007KT P6SM SCT100 WS020/23035KT
     FM031400 18010KT P6SM BKN080
     FM032100 16012KT P6SM VCTS BKN035CB OVC070
     FM040000 13008KT 5SM -RA BR VCTS BKN035CB OVC060
     FM040400 15007KT 3SM -RA BR VCTS SCT015CB OVC030=

USA.gov is the U.S. government's official web portal to all federal, state and local government web resources and services.